Time;durP1;ratioP1;P1;durP2;ratioP2;P2;SDS_P1;SDS_P2;PMS_P1;PMS_P2;Temp;Humidity;BMP_temperature;BMP_pressure;BME280_temperature;BME280_humidity;BME280_pressure;Samples;Min_cycle;Max_cycle;Signal;HPM_P1;HPM_P2
2021/12/17 00:00:46;;;;;;;0.67;0.30;;;3.20;99.90;;;;;;5075991;28;20457;-79
2021/12/17 00:03:32;;;;;;;0.30;0.30;;;3.10;99.90;;;;;;5076277;28;20498;-79
2021/12/17 00:06:15;;;;;;;0.40;0.40;;;3.10;99.90;;;;;;5075922;28;20433;-78
2021/12/17 00:08:47;;;;;;;0.87;0.87;;;3.20;99.90;;;;;;5075154;28;20847;-79
2021/12/17 00:11:14;;;;;;;0.30;0.20;;;3.20;99.90;;;;;;5075777;28;20469;-79
2021/12/17 00:13:43;;;;;;;0.93;0.93;;;3.20;99.90;;;;;;5075801;28;20437;-79
2021/12/17 00:16:17;;;;;;;0.30;0.20;;;3.20;99.90;;;;;;5075702;28;20493;-79
2021/12/17 00:18:58;;;;;;;0.30;0.30;;;3.20;99.90;;;;;;5075483;28;20804;-79
2021/12/17 00:49:29;;;;;;;0.60;0.60;;;3.60;99.90;;;;;;5074877;28;20415;-79
2021/12/17 00:51:57;;;;;;;0.50;0.50;;;3.60;99.90;;;;;;5074976;28;20473;-79
2021/12/17 00:54:33;;;;;;;0.30;0.20;;;3.60;99.90;;;;;;5074650;28;20489;-79
2021/12/17 00:57:07;;;;;;;0.77;0.77;;;3.60;99.90;;;;;;5075051;28;20497;-79
2021/12/17 00:59:35;;;;;;;0.90;0.90;;;3.70;99.90;;;;;;5074641;28;20900;-79
2021/12/17 01:02:05;;;;;;;0.47;0.37;;;3.70;99.90;;;;;;5074459;28;20465;-79
2021/12/17 01:04:34;;;;;;;0.40;0.30;;;3.70;99.90;;;;;;5074780;28;20539;-79
2021/12/17 01:07:01;;;;;;;2.20;0.57;;;3.80;99.90;;;;;;5074667;28;20532;-79
2021/12/17 01:09:28;;;;;;;0.40;0.40;;;3.90;99.90;;;;;;5074714;28;20441;-79
2021/12/17 01:11:57;;;;;;;0.30;0.30;;;4.00;99.90;;;;;;5074553;28;20469;-79
2021/12/17 01:14:24;;;;;;;0.30;0.20;;;4.00;99.90;;;;;;5074271;28;20436;-79
2021/12/17 01:16:53;;;;;;;0.40;0.40;;;4.00;99.90;;;;;;5074596;28;20453;-79
2021/12/17 01:19:28;;;;;;;0.40;0.40;;;4.10;99.90;;;;;;5073273;28;20571;-79
2021/12/17 01:22:14;;;;;;;0.30;0.30;;;4.20;99.90;;;;;;5074302;28;20464;-79
2021/12/17 01:24:47;;;;;;;0.30;0.30;;;4.20;99.90;;;;;;5074360;28;20443;-79
2021/12/17 01:35:29;;;;;;;0.30;0.30;;;4.20;99.90;;;;;;5073838;28;20468;-79
2021/12/17 01:43:30;;;;;;;0.40;0.30;;;4.20;99.90;;;;;;5074179;28;20417;-79
2021/12/17 01:45:57;;;;;;;0.40;0.40;;;4.20;99.90;;;;;;5073997;28;20494;-79
2021/12/17 01:48:30;;;;;;;0.30;0.30;;;4.20;99.90;;;;;;5073877;28;20441;-79
2021/12/17 01:56:39;;;;;;;0.30;0.30;;;4.30;99.90;;;;;;5073576;28;20404;-79
2021/12/17 02:02:02;;;;;;;0.60;0.60;;;4.30;99.90;;;;;;5057658;28;20472;-79
2021/12/17 02:04:31;;;;;;;0.30;0.30;;;4.20;99.90;;;;;;5073644;28;20511;-79
2021/12/17 02:06:58;;;;;;;0.30;0.30;;;4.20;99.90;;;;;;5073649;28;20444;-79
2021/12/17 02:12:32;;;;;;;0.43;0.30;;;3.90;99.90;;;;;;5048860;28;20459;-79
2021/12/17 02:21:05;;;;;;;1.00;0.73;;;3.70;99.90;;;;;;5073288;28;20912;-78
2021/12/17 02:29:21;;;;;;;0.40;0.40;;;3.90;99.90;;;;;;5073430;28;20400;-79
2021/12/17 02:31:54;;;;;;;0.40;0.40;;;3.90;99.90;;;;;;5073139;28;20464;-79
2021/12/17 02:34:33;;;;;;;0.30;0.30;;;4.00;99.90;;;;;;5072858;28;20453;-79
2021/12/17 02:37:06;;;;;;;0.73;0.73;;;4.00;99.90;;;;;;5073255;28;20437;-79
2021/12/17 02:39:54;;;;;;;0.80;0.70;;;4.00;99.90;;;;;;5072938;28;20564;-79
2021/12/17 02:42:36;;;;;;;0.77;0.73;;;4.00;99.90;;;;;;5072787;28;20532;-79
2021/12/17 02:47:58;;;;;;;0.30;0.30;;;4.10;99.90;;;;;;5075578;28;20427;-87
2021/12/17 02:50:25;;;;;;;0.40;0.40;;;4.20;99.90;;;;;;5076492;28;20435;-86
2021/12/17 02:52:56;;;;;;;1.37;0.63;;;4.20;99.90;;;;;;5078613;28;20798;-86
2021/12/17 02:55:23;;;;;;;0.30;0.30;;;4.20;99.90;;;;;;5073818;28;20413;-87
2021/12/17 02:57:51;;;;;;;0.30;0.30;;;4.20;99.90;;;;;;5073670;28;20503;-87
2021/12/17 03:00:20;;;;;;;0.53;0.53;;;4.20;99.90;;;;;;5074076;28;20445;-87
2021/12/17 03:02:48;;;;;;;0.40;0.40;;;4.20;99.90;;;;;;5074052;28;20452;-87
2021/12/17 03:05:16;;;;;;;0.30;0.30;;;4.20;99.90;;;;;;5073728;28;20966;-87
2021/12/17 03:07:46;;;;;;;0.70;0.70;;;4.30;99.90;;;;;;5073977;28;20444;-87
2021/12/17 03:10:15;;;;;;;0.30;0.30;;;4.30;99.90;;;;;;5073979;28;20905;-87
2021/12/17 03:12:46;;;;;;;0.30;0.30;;;4.40;99.90;;;;;;5073523;28;20903;-87
2021/12/17 03:15:20;;;;;;;2.00;0.50;;;4.40;99.90;;;;;;5074004;28;20444;-87
2021/12/17 03:18:30;;;;;;;0.40;0.40;;;4.40;99.90;;;;;;5073523;28;20979;-87
2021/12/17 03:23:40;;;;;;;0.40;0.40;;;4.40;99.90;;;;;;5073917;28;20409;-87
2021/12/17 03:26:10;;;;;;;0.30;0.30;;;4.40;99.90;;;;;;5073846;28;20498;-87
2021/12/17 03:28:39;;;;;;;0.30;0.20;;;4.40;99.90;;;;;;5074174;28;20425;-87
2021/12/17 03:31:06;;;;;;;0.63;0.30;;;4.40;99.90;;;;;;5073849;28;20986;-87
2021/12/17 03:33:34;;;;;;;0.30;0.30;;;4.30;99.90;;;;;;5073637;28;20940;-87
2021/12/17 03:36:01;;;;;;;0.30;0.30;;;4.30;99.90;;;;;;5073798;28;20863;-87
2021/12/17 03:38:29;;;;;;;0.40;0.40;;;4.40;99.90;;;;;;5074597;28;20476;-87
2021/12/17 03:41:09;;;;;;;0.30;0.30;;;4.40;99.90;;;;;;5077010;28;20476;-87
2021/12/17 03:43:38;;;;;;;0.40;0.40;;;4.40;99.90;;;;;;5076589;28;20464;-87
2021/12/17 03:46:05;;;;;;;0.37;0.37;;;4.40;99.90;;;;;;5077438;28;20441;-87
2021/12/17 03:48:35;;;;;;;0.40;0.40;;;4.50;99.90;;;;;;5077297;28;20443;-86
2021/12/17 03:51:02;;;;;;;0.37;0.37;;;4.50;99.90;;;;;;5077241;28;20808;-86
2021/12/17 03:53:29;;;;;;;1.03;0.90;;;4.60;99.90;;;;;;5077501;28;20812;-87
2021/12/17 03:55:56;;;;;;;0.43;0.43;;;4.80;99.90;;;;;;5077658;28;20445;-87
2021/12/17 03:58:23;;;;;;;0.30;0.30;;;4.80;99.90;;;;;;5078760;28;20473;-87
2021/12/17 04:00:51;;;;;;;0.30;0.30;;;4.80;99.90;;;;;;5077426;28;20479;-87
2021/12/17 04:03:17;;;;;;;0.37;0.37;;;4.90;99.90;;;;;;5077071;28;20433;-87
2021/12/17 04:05:44;;;;;;;0.53;0.53;;;5.00;99.90;;;;;;5077092;28;20456;-87
2021/12/17 04:08:11;;;;;;;0.77;0.77;;;5.00;99.90;;;;;;5076691;28;20437;-87
2021/12/17 04:10:42;;;;;;;0.83;0.50;;;5.00;99.90;;;;;;5076822;28;20456;-86
2021/12/17 04:13:27;;;;;;;0.30;0.20;;;5.10;99.90;;;;;;5077085;28;20438;-87
2021/12/17 04:15:58;;;;;;;0.30;0.30;;;5.10;99.90;;;;;;5076801;28;20792;-86
2021/12/17 04:18:26;;;;;;;0.60;0.60;;;5.10;99.90;;;;;;5076985;28;20472;-86
2021/12/17 04:20:53;;;;;;;1.13;1.13;;;5.20;99.90;;;;;;5076935;28;20469;-87
2021/12/17 04:23:20;;;;;;;0.30;0.30;;;5.20;99.90;;;;;;5076862;28;20449;-86
2021/12/17 04:25:48;;;;;;;0.70;0.70;;;5.20;99.90;;;;;;5081006;28;20551;-86
2021/12/17 04:28:16;;;;;;;0.40;0.30;;;5.10;99.90;;;;;;5076813;28;20472;-86
2021/12/17 04:30:43;;;;;;;0.30;0.20;;;5.00;99.90;;;;;;5077194;28;20461;-87
2021/12/17 04:33:12;;;;;;;0.40;0.40;;;5.10;99.90;;;;;;5076525;28;20452;-87
2021/12/17 04:35:39;;;;;;;0.30;0.30;;;5.10;99.90;;;;;;5076444;28;20522;-86
2021/12/17 04:38:08;;;;;;;0.30;0.30;;;5.10;99.90;;;;;;5076198;28;20457;-86
2021/12/17 04:40:36;;;;;;;0.30;0.30;;;5.10;99.90;;;;;;5076102;28;20545;-87
2021/12/17 04:43:13;;;;;;;0.30;0.30;;;5.10;99.90;;;;;;5076135;28;20433;-86
2021/12/17 04:45:45;;;;;;;0.30;0.20;;;5.10;99.90;;;;;;5076173;28;20441;-86
2021/12/17 04:59:18;;;;;;;0.80;0.40;;;5.10;99.90;;;;;;5077455;28;20464;-86
2021/12/17 05:01:45;;;;;;;0.70;0.70;;;5.10;99.90;;;;;;5076994;28;20459;-87
2021/12/17 05:04:13;;;;;;;0.30;0.30;;;5.10;99.90;;;;;;5076315;28;20929;-86
2021/12/17 05:06:40;;;;;;;0.30;0.20;;;5.20;99.90;;;;;;5075629;28;20437;-87
2021/12/17 05:09:13;;;;;;;0.30;0.20;;;5.10;99.90;;;;;;5075901;28;20924;-87
2021/12/17 05:20:25;;;;;;;0.30;0.30;;;5.00;99.90;;;;;;5062190;28;20527;-86
2021/12/17 05:22:57;;;;;;;0.50;0.37;;;5.00;99.90;;;;;;5075979;28;20441;-87
2021/12/17 05:25:26;;;;;;;0.30;0.30;;;5.00;99.90;;;;;;5075874;28;20532;-87
2021/12/17 05:27:53;;;;;;;0.53;0.53;;;4.90;99.90;;;;;;5075799;28;20853;-87
2021/12/17 05:30:20;;;;;;;0.40;0.40;;;5.00;99.90;;;;;;5075623;28;20936;-87
2021/12/17 05:32:46;;;;;;;0.30;0.30;;;4.90;99.90;;;;;;5075567;28;20449;-87
2021/12/17 05:35:15;;;;;;;0.30;0.30;;;4.90;99.90;;;;;;5074852;28;20481;-87
2021/12/17 05:37:41;;;;;;;0.30;0.20;;;4.90;99.90;;;;;;5075316;28;20441;-87
2021/12/17 05:40:09;;;;;;;0.40;0.37;;;5.00;99.90;;;;;;5075155;28;20476;-86
2021/12/17 05:42:36;;;;;;;0.30;0.30;;;5.00;99.90;;;;;;5074986;28;20472;-86
2021/12/17 05:45:09;;;;;;;0.30;0.30;;;5.10;99.90;;;;;;5075484;28;20986;-86
2021/12/17 05:47:36;;;;;;;0.50;0.47;;;5.10;99.90;;;;;;5074995;28;20544;-86
2021/12/17 05:50:03;;;;;;;0.30;0.20;;;5.10;99.90;;;;;;5074883;28;20437;-86
2021/12/17 05:52:32;;;;;;;0.30;0.30;;;5.20;99.90;;;;;;5074961;28;20465;-86
2021/12/17 05:54:59;;;;;;;0.30;0.30;;;5.20;99.90;;;;;;5075952;28;20860;-88
2021/12/17 05:57:25;;;;;;;0.70;0.70;;;5.10;99.90;;;;;;5075274;28;20829;-88
2021/12/17 05:59:52;;;;;;;0.30;0.30;;;5.10;99.90;;;;;;5074967;28;20472;-88
2021/12/17 06:02:20;;;;;;;0.30;0.20;;;5.00;99.90;;;;;;5074734;28;20511;-87
2021/12/17 06:04:46;;;;;;;0.57;0.57;;;5.00;99.90;;;;;;5074685;28;20858;-87
2021/12/17 06:07:13;;;;;;;0.40;0.40;;;5.00;99.90;;;;;;5074997;28;20469;-88
2021/12/17 06:09:42;;;;;;;0.40;0.30;;;5.10;99.90;;;;;;5075513;28;20441;-87
2021/12/17 06:12:09;;;;;;;0.47;0.47;;;5.10;99.90;;;;;;5074849;28;20461;-87
2021/12/17 06:14:35;;;;;;;0.30;0.20;;;5.10;99.90;;;;;;5074743;28;20433;-88
2021/12/17 06:17:02;;;;;;;0.30;0.30;;;5.00;99.90;;;;;;5075056;28;20452;-87
2021/12/17 06:19:29;;;;;;;0.30;0.30;;;5.00;99.90;;;;;;5075688;28;20508;-87
2021/12/17 06:21:58;;;;;;;0.30;0.30;;;4.90;99.90;;;;;;5075008;28;20960;-88
2021/12/17 06:24:25;;;;;;;0.30;0.30;;;5.00;99.90;;;;;;5075057;28;20945;-87
2021/12/17 06:26:53;;;;;;;0.60;0.60;;;5.00;99.90;;;;;;5075624;28;20456;-87
2021/12/17 06:29:20;;;;;;;0.40;0.40;;;4.90;99.90;;;;;;5074825;28;20975;-87
2021/12/17 06:31:47;;;;;;;0.30;0.30;;;5.00;99.90;;;;;;5075184;28;20476;-88
2021/12/17 06:34:13;;;;;;;0.30;0.30;;;4.90;99.90;;;;;;5075218;28;20437;-86
2021/12/17 06:36:40;;;;;;;3.73;0.53;;;4.90;99.90;;;;;;5074617;28;20410;-87
2021/12/17 06:39:07;;;;;;;0.30;0.30;;;4.90;99.90;;;;;;5074303;28;20485;-88
2021/12/17 06:41:34;;;;;;;0.67;0.40;;;4.90;99.90;;;;;;5074314;28;20465;-88
2021/12/17 06:44:02;;;;;;;0.30;0.27;;;4.90;99.90;;;;;;5074794;28;20452;-87
2021/12/17 06:46:36;;;;;;;0.30;0.30;;;4.90;99.90;;;;;;5075321;28;20820;-88
2021/12/17 06:49:19;;;;;;;0.30;0.30;;;4.80;99.90;;;;;;5076007;28;20429;-87
2021/12/17 06:54:44;;;;;;;0.33;0.27;;;5.10;99.90;;;;;;5077369;28;20477;-88
2021/12/17 07:00:23;;;;;;;0.30;0.30;;;5.00;99.90;;;;;;5018726;28;20531;-87
2021/12/17 07:11:02;;;;;;;0.30;0.20;;;5.10;99.90;;;;;;5075454;28;20593;-86
2021/12/17 07:21:55;;;;;;;1.03;0.33;;;4.90;99.90;;;;;;5077623;28;20487;-87
2021/12/17 07:32:50;;;;;;;0.30;0.20;;;5.00;99.90;;;;;;5078811;28;20437;-87
2021/12/17 07:35:39;;;;;;;0.40;0.40;;;5.00;99.90;;;;;;5077391;28;20481;-87
2021/12/17 07:40:50;;;;;;;0.30;0.30;;;5.00;99.90;;;;;;5077449;28;20476;-87
2021/12/17 07:43:26;;;;;;;0.30;0.20;;;5.10;99.90;;;;;;5077300;28;20896;-88
2021/12/17 07:45:53;;;;;;;0.30;0.30;;;5.00;99.90;;;;;;5077266;28;20433;-86
2021/12/17 07:48:22;;;;;;;0.30;0.30;;;5.00;99.90;;;;;;5077796;28;20436;-86
2021/12/17 07:50:49;;;;;;;0.30;0.30;;;5.00;99.90;;;;;;5077462;28;20460;-86
2021/12/17 07:53:17;;;;;;;1.10;1.03;;;5.10;99.90;;;;;;5082090;28;20436;-85
2021/12/17 07:55:44;;;;;;;0.40;0.40;;;5.00;99.90;;;;;;5077511;28;20441;-86
2021/12/17 07:58:11;;;;;;;0.30;0.30;;;5.10;99.90;;;;;;5077036;28;20433;-86
2021/12/17 08:00:38;;;;;;;0.30;0.30;;;5.20;99.90;;;;;;5076951;28;20492;-86
2021/12/17 08:03:05;;;;;;;0.40;0.40;;;5.20;99.90;;;;;;5077005;28;20437;-86
2021/12/17 08:05:33;;;;;;;0.70;0.70;;;5.20;99.90;;;;;;5076924;28;20429;-86
2021/12/17 08:08:00;;;;;;;0.30;0.23;;;5.20;99.90;;;;;;5076509;28;20418;-86
2021/12/17 08:10:27;;;;;;;0.40;0.40;;;5.10;99.90;;;;;;5076832;28;20907;-86
2021/12/17 08:12:55;;;;;;;0.60;0.60;;;5.10;99.90;;;;;;5076777;28;20448;-86
2021/12/17 08:15:29;;;;;;;0.30;0.30;;;5.10;99.90;;;;;;5077144;28;20803;-85
2021/12/17 08:18:26;;;;;;;0.43;0.43;;;5.00;99.90;;;;;;5076833;28;20455;-86
2021/12/17 08:24:26;;;;;;;0.40;0.40;;;5.20;99.90;;;;;;5076680;28;20551;-86
2021/12/17 08:26:56;;;;;;;0.30;0.20;;;5.20;99.90;;;;;;5076007;28;20524;-86
2021/12/17 08:29:43;;;;;;;0.50;0.50;;;5.30;99.90;;;;;;5075732;28;20429;-86
2021/12/17 08:32:11;;;;;;;0.30;0.20;;;5.30;99.90;;;;;;5076176;28;20824;-86
2021/12/17 08:34:38;;;;;;;0.43;0.43;;;5.30;99.90;;;;;;5076178;28;20534;-86
2021/12/17 08:37:07;;;;;;;0.30;0.20;;;5.30;99.90;;;;;;5076428;28;20518;-86
2021/12/17 08:39:34;;;;;;;0.40;0.33;;;5.30;99.90;;;;;;5077191;28;20802;-86
2021/12/17 08:42:00;;;;;;;0.30;0.30;;;5.30;99.90;;;;;;5076124;28;20461;-86
2021/12/17 08:44:28;;;;;;;0.40;0.40;;;5.30;99.90;;;;;;5076205;28;20453;-87
2021/12/17 08:46:55;;;;;;;0.30;0.20;;;5.40;99.90;;;;;;5075896;28;20494;-87
2021/12/17 08:49:22;;;;;;;0.57;0.57;;;5.50;99.90;;;;;;5075749;28;20444;-87
2021/12/17 08:51:49;;;;;;;1.27;1.27;;;5.60;99.90;;;;;;5075550;28;20468;-86
2021/12/17 08:54:17;;;;;;;0.50;0.50;;;5.50;99.90;;;;;;5076067;28;20475;-87
2021/12/17 08:56:47;;;;;;;0.77;0.77;;;5.40;99.90;;;;;;5075832;28;20472;-86
2021/12/17 08:59:16;;;;;;;0.40;0.40;;;5.40;99.90;;;;;;5075660;28;20452;-86
2021/12/17 09:01:44;;;;;;;0.30;0.20;;;5.50;99.90;;;;;;5075547;28;20987;-86
2021/12/17 09:04:11;;;;;;;0.50;0.50;;;5.50;99.90;;;;;;5075862;28;20440;-87
2021/12/17 09:06:38;;;;;;;0.33;0.27;;;5.60;99.90;;;;;;5076043;28;20947;-86
2021/12/17 09:09:05;;;;;;;0.30;0.30;;;5.50;99.90;;;;;;5075763;28;20464;-86
2021/12/17 09:11:33;;;;;;;1.33;0.90;;;5.60;99.90;;;;;;5075942;28;20465;-87
2021/12/17 09:14:02;;;;;;;0.30;0.30;;;5.60;99.90;;;;;;5076482;28;20929;-87
2021/12/17 09:16:29;;;;;;;0.30;0.20;;;5.60;99.90;;;;;;5079047;28;20456;-85
2021/12/17 09:18:57;;;;;;;0.30;0.30;;;5.80;99.90;;;;;;5083970;28;20453;-88
2021/12/17 09:21:24;;;;;;;0.30;0.30;;;5.80;99.90;;;;;;5084590;28;20480;-87
2021/12/17 09:23:51;;;;;;;0.30;0.30;;;5.80;99.90;;;;;;5085707;28;20448;-86
2021/12/17 09:26:18;;;;;;;0.30;0.30;;;5.90;99.90;;;;;;5075946;28;20449;-87
2021/12/17 09:28:47;;;;;;;0.30;0.20;;;5.90;99.90;;;;;;5075415;28;20499;-87
2021/12/17 09:31:14;;;;;;;0.43;0.43;;;6.00;99.90;;;;;;5074847;28;20987;-87
2021/12/17 09:33:43;;;;;;;3.30;0.50;;;6.20;99.90;;;;;;5075039;28;20940;-87
2021/12/17 09:36:10;;;;;;;0.30;0.30;;;6.40;99.90;;;;;;5075754;28;20483;-87
2021/12/17 09:38:37;;;;;;;0.70;0.70;;;6.50;99.90;;;;;;5075939;28;20406;-87
2021/12/17 09:41:04;;;;;;;0.30;0.30;;;6.40;99.90;;;;;;5074746;28;20500;-86
2021/12/17 09:43:32;;;;;;;0.30;0.20;;;6.40;99.90;;;;;;5076054;28;20413;-87
2021/12/17 09:46:01;;;;;;;0.63;0.63;;;6.80;99.90;;;;;;5075527;28;20429;-87
2021/12/17 09:48:27;;;;;;;0.30;0.30;;;7.80;99.90;;;;;;5075899;28;20429;-87
2021/12/17 09:50:55;;;;;;;0.60;0.40;;;8.90;99.90;;;;;;5078923;28;20973;-87
2021/12/17 09:53:22;;;;;;;0.30;0.30;;;10.20;99.90;;;;;;5076052;28;20448;-86
2021/12/17 09:55:50;;;;;;;1.00;1.00;;;11.70;99.90;;;;;;5074831;28;20436;-88
2021/12/17 09:58:16;;;;;;;0.67;0.47;;;12.90;99.90;;;;;;5073957;28;20457;-82
2021/12/17 10:00:43;;;;;;;1.10;1.00;;;14.00;99.90;;;;;;5074701;28;20484;-87
2021/12/17 10:03:12;;;;;;;1.07;0.50;;;14.90;99.90;;;;;;5074917;28;20433;-87
2021/12/17 10:05:41;;;;;;;1.83;0.50;;;15.70;99.90;;;;;;5074996;28;20487;-87
2021/12/17 10:08:13;;;;;;;1.90;0.67;;;15.90;99.90;;;;;;5075079;28;20434;-85
2021/12/17 10:10:41;;;;;;;4.17;0.70;;;15.90;98.70;;;;;;5075204;28;20476;-88
2021/12/17 10:13:12;;;;;;;1.70;0.60;;;15.30;98.00;;;;;;5075190;28;20429;-88
2021/12/17 10:15:41;;;;;;;1.10;0.70;;;14.60;98.50;;;;;;5074953;28;20429;-87
2021/12/17 10:18:08;;;;;;;0.80;0.33;;;13.30;99.30;;;;;;5075544;28;20409;-87
2021/12/17 10:20:42;;;;;;;0.70;0.50;;;12.50;99.90;;;;;;5074987;28;20480;-88
2021/12/17 10:23:11;;;;;;;4.60;2.00;;;12.00;99.90;;;;;;5075013;28;20489;-88
2021/12/17 10:25:42;;;;;;;1.83;1.00;;;11.40;99.90;;;;;;5074935;28;20429;-87
2021/12/17 10:28:09;;;;;;;0.60;0.60;;;10.80;99.90;;;;;;5074416;28;20441;-87
2021/12/17 10:30:38;;;;;;;1.30;0.40;;;10.40;99.90;;;;;;5074592;28;20437;-87
2021/12/17 10:33:07;;;;;;;1.00;0.67;;;10.10;99.90;;;;;;5074547;28;20433;-87
2021/12/17 10:35:37;;;;;;;0.40;0.40;;;10.00;99.90;;;;;;5074148;28;20472;-87
2021/12/17 10:38:07;;;;;;;2.20;0.70;;;9.60;99.90;;;;;;5074437;28;20433;-87
2021/12/17 10:40:38;;;;;;;0.73;0.60;;;9.30;99.90;;;;;;5074500;28;20469;-87
2021/12/17 10:43:15;;;;;;;0.40;0.40;;;9.00;99.90;;;;;;5074361;28;20867;-87
2021/12/17 10:45:46;;;;;;;1.17;0.87;;;8.80;99.90;;;;;;5074275;28;20455;-87
2021/12/17 10:51:18;;;;;;;0.50;0.30;;;8.40;99.90;;;;;;5070789;28;20515;-87
2021/12/17 10:53:54;;;;;;;0.37;0.30;;;8.10;99.90;;;;;;5078494;28;20782;-87
2021/12/17 10:56:23;;;;;;;1.30;0.50;;;8.00;99.90;;;;;;5078503;28;20409;-87
2021/12/17 10:58:54;;;;;;;0.93;0.30;;;7.90;99.90;;;;;;5078471;28;20444;-87
2021/12/17 11:01:33;;;;;;;1.07;0.80;;;7.90;99.90;;;;;;5078542;28;20865;-87
2021/12/17 11:04:12;;;;;;;0.60;0.50;;;7.80;99.90;;;;;;5079039;28;20491;-87
2021/12/17 11:06:49;;;;;;;0.30;0.30;;;7.80;99.90;;;;;;5082413;28;20435;-87
2021/12/17 11:09:34;;;;;;;0.33;0.33;;;7.70;99.90;;;;;;5078296;28;20903;-87
2021/12/17 11:12:06;;;;;;;0.60;0.30;;;7.70;99.90;;;;;;5078270;28;20468;-87
2021/12/17 11:14:34;;;;;;;0.40;0.30;;;7.60;99.90;;;;;;5082311;28;20522;-87
2021/12/17 11:17:01;;;;;;;0.37;0.33;;;7.70;99.90;;;;;;5079669;28;20498;-87
2021/12/17 11:19:29;;;;;;;0.40;0.40;;;7.70;99.90;;;;;;5080960;28;20432;-87
2021/12/17 11:21:58;;;;;;;0.80;0.30;;;7.80;99.90;;;;;;5078224;28;20546;-87
2021/12/17 11:24:26;;;;;;;0.50;0.50;;;7.90;99.90;;;;;;5081816;28;20532;-87
2021/12/17 11:26:54;;;;;;;0.40;0.30;;;7.90;99.90;;;;;;5089491;28;20431;-87
2021/12/17 11:29:21;;;;;;;0.50;0.50;;;8.00;99.90;;;;;;5089720;28;20433;-85
2021/12/17 11:31:49;;;;;;;0.50;0.30;;;8.00;99.90;;;;;;5083487;28;20460;-88
2021/12/17 11:34:18;;;;;;;0.40;0.40;;;8.00;99.90;;;;;;5077514;28;20452;-87
2021/12/17 11:36:45;;;;;;;0.30;0.30;;;7.90;99.90;;;;;;5077584;28;20441;-87
2021/12/17 11:39:22;;;;;;;0.40;0.40;;;7.90;99.90;;;;;;5077584;28;21003;-87
2021/12/17 11:41:56;;;;;;;0.40;0.30;;;8.00;99.90;;;;;;5077233;28;20480;-87
2021/12/17 11:44:28;;;;;;;0.83;0.43;;;7.90;99.90;;;;;;5078051;28;20428;-87
2021/12/17 11:47:03;;;;;;;2.80;0.80;;;7.80;99.90;;;;;;5077777;28;20792;-87
2021/12/17 11:49:35;;;;;;;2.83;0.30;;;7.70;99.90;;;;;;5077231;28;20425;-88
2021/12/17 11:52:02;;;;;;;0.30;0.30;;;7.70;99.90;;;;;;5077444;28;20465;-87
2021/12/17 11:54:35;;;;;;;0.30;0.20;;;7.60;99.90;;;;;;5077421;28;20433;-88
2021/12/17 11:57:07;;;;;;;0.40;0.40;;;7.60;99.90;;;;;;5077403;28;20434;-87
2021/12/17 11:59:41;;;;;;;0.30;0.30;;;7.70;99.90;;;;;;5077724;28;20531;-88
2021/12/17 12:02:15;;;;;;;1.27;1.03;;;7.60;99.90;;;;;;5076855;28;20995;-88
2021/12/17 12:04:54;;;;;;;0.50;0.40;;;7.60;99.90;;;;;;5076167;28;20436;-88
2021/12/17 12:07:34;;;;;;;0.50;0.50;;;7.60;99.90;;;;;;5076214;28;20429;-88
2021/12/17 12:10:24;;;;;;;0.30;0.30;;;7.50;99.90;;;;;;5077077;28;20527;-88
2021/12/17 12:13:01;;;;;;;0.30;0.30;;;7.50;99.90;;;;;;5075351;28;20979;-87
2021/12/17 12:15:37;;;;;;;0.67;0.67;;;7.60;99.90;;;;;;5076561;28;20446;-86
2021/12/17 12:18:16;;;;;;;0.30;0.30;;;7.60;99.90;;;;;;5076420;28;20486;-86
2021/12/17 12:20:56;;;;;;;2.00;0.40;;;7.50;99.90;;;;;;5076609;28;20476;-86
2021/12/17 12:23:40;;;;;;;0.30;0.30;;;7.40;99.90;;;;;;5076772;28;20439;-86
2021/12/17 12:26:34;;;;;;;1.23;0.40;;;7.40;99.90;;;;;;5063480;28;20458;-87
2021/12/17 12:29:05;;;;;;;0.30;0.30;;;7.20;99.90;;;;;;5076334;28;20966;-87
2021/12/17 12:31:54;;;;;;;0.30;0.20;;;7.30;99.90;;;;;;5076874;28;20464;-87
2021/12/17 12:34:28;;;;;;;0.90;0.90;;;7.20;99.90;;;;;;5076585;28;20901;-86
2021/12/17 12:36:57;;;;;;;1.10;0.30;;;7.10;99.90;;;;;;5076432;28;20449;-86
2021/12/17 12:39:26;;;;;;;0.67;0.67;;;7.20;99.90;;;;;;5076420;28;20432;-88
2021/12/17 12:42:07;;;;;;;0.90;0.57;;;7.10;99.90;;;;;;5076293;28;20504;-88
2021/12/17 12:45:08;;;;;;;0.30;0.30;;;7.10;99.90;;;;;;5076353;28;20440;-88
2021/12/17 12:47:41;;;;;;;0.70;0.70;;;7.10;99.90;;;;;;5076401;28;20540;-88
2021/12/17 12:50:11;;;;;;;0.40;0.40;;;7.10;99.90;;;;;;5076361;28;20444;-88
2021/12/17 12:52:41;;;;;;;0.30;0.30;;;7.20;99.90;;;;;;5076303;28;20465;-88
2021/12/17 12:55:14;;;;;;;0.30;0.30;;;7.20;99.90;;;;;;5076242;28;20443;-88
2021/12/17 12:57:44;;;;;;;2.20;0.50;;;7.10;99.90;;;;;;5076144;28;20432;-88
2021/12/17 13:00:14;;;;;;;0.50;0.40;;;7.10;99.90;;;;;;5076238;28;20425;-88
2021/12/17 13:02:43;;;;;;;0.50;0.50;;;7.00;99.90;;;;;;5076176;28;20452;-89
2021/12/17 13:05:11;;;;;;;0.83;0.40;;;6.90;99.90;;;;;;5076137;28;20436;-88
2021/12/17 13:07:40;;;;;;;0.60;0.60;;;6.80;99.90;;;;;;5076028;28;20433;-87
2021/12/17 13:10:08;;;;;;;0.30;0.30;;;6.80;99.90;;;;;;5075935;28;20429;-88
2021/12/17 13:12:37;;;;;;;0.63;0.40;;;6.80;99.90;;;;;;5075520;28;20535;-87
2021/12/17 13:15:19;;;;;;;0.30;0.30;;;6.80;99.90;;;;;;5074692;28;20438;-88
2021/12/17 13:20:56;;;;;;;0.40;0.30;;;6.80;99.90;;;;;;5075279;28;20479;-87
2021/12/17 13:23:24;;;;;;;0.67;0.40;;;6.60;99.90;;;;;;5075830;28;20462;-87
2021/12/17 13:26:08;;;;;;;0.30;0.30;;;6.60;99.90;;;;;;5075400;28;20901;-87
2021/12/17 13:28:51;;;;;;;0.30;0.20;;;6.70;99.90;;;;;;5075831;28;20429;-86
2021/12/17 13:31:44;;;;;;;1.53;1.43;;;6.70;99.90;;;;;;5080436;28;20456;-87
2021/12/17 13:34:17;;;;;;;0.40;0.40;;;6.70;99.90;;;;;;5088617;28;20429;-86
2021/12/17 13:36:55;;;;;;;0.40;0.40;;;6.70;99.90;;;;;;5089495;28;20429;-87
2021/12/17 13:39:25;;;;;;;0.40;0.37;;;6.70;99.90;;;;;;5081894;28;20429;-87
2021/12/17 13:41:52;;;;;;;0.40;0.40;;;6.70;99.90;;;;;;5074916;28;20485;-86
2021/12/17 13:44:31;;;;;;;0.30;0.30;;;6.70;99.90;;;;;;5074820;28;20445;-86
2021/12/17 13:47:28;;;;;;;0.47;0.47;;;6.70;99.90;;;;;;5074842;28;20842;-87
2021/12/17 13:50:02;;;;;;;0.80;0.80;;;6.60;99.90;;;;;;5075043;28;20418;-87
2021/12/17 13:52:32;;;;;;;0.30;0.20;;;6.50;99.90;;;;;;5074240;28;20468;-86
2021/12/17 13:55:01;;;;;;;0.40;0.40;;;6.50;99.90;;;;;;5075199;28;20449;-87
2021/12/17 13:57:31;;;;;;;0.30;0.30;;;6.40;99.90;;;;;;5074530;28;20417;-87
2021/12/17 14:00:11;;;;;;;0.70;0.50;;;6.40;99.90;;;;;;5074543;28;20417;-87
2021/12/17 14:02:40;;;;;;;0.40;0.37;;;6.40;99.90;;;;;;5074186;28;21010;-87
2021/12/17 14:05:09;;;;;;;0.67;0.67;;;6.50;99.90;;;;;;5075308;28;20449;-87
2021/12/17 14:07:39;;;;;;;0.67;0.67;;;6.50;99.90;;;;;;5074560;28;20433;-87
2021/12/17 14:10:09;;;;;;;0.37;0.30;;;6.60;99.90;;;;;;5074619;28;20424;-87
2021/12/17 14:12:39;;;;;;;0.30;0.30;;;6.50;99.90;;;;;;5074625;28;20476;-87
2021/12/17 14:15:09;;;;;;;0.30;0.30;;;6.40;99.90;;;;;;5074037;28;20441;-87
2021/12/17 14:17:39;;;;;;;0.40;0.30;;;6.40;99.90;;;;;;5074312;28;20440;-87
2021/12/17 14:20:10;;;;;;;0.30;0.30;;;6.40;99.90;;;;;;5075227;28;20433;-87
2021/12/17 14:22:38;;;;;;;0.30;0.30;;;6.40;99.90;;;;;;5074495;28;20485;-87
2021/12/17 14:25:30;;;;;;;0.30;0.30;;;6.30;99.90;;;;;;5073961;28;20827;-84
2021/12/17 14:27:58;;;;;;;0.30;0.30;;;6.20;99.90;;;;;;5073567;28;20437;-85
2021/12/17 14:30:28;;;;;;;0.50;0.37;;;6.20;99.90;;;;;;5073752;28;20440;-84
2021/12/17 14:32:56;;;;;;;0.33;0.33;;;6.30;99.90;;;;;;5074033;28;20527;-85
2021/12/17 14:35:42;;;;;;;0.50;0.50;;;6.30;99.90;;;;;;5073593;28;20472;-85
2021/12/17 14:38:10;;;;;;;0.30;0.30;;;6.20;99.90;;;;;;5065139;28;20445;-87
2021/12/17 14:40:42;;;;;;;0.40;0.30;;;6.10;99.90;;;;;;5075993;28;20432;-87
2021/12/17 14:43:23;;;;;;;0.30;0.30;;;6.10;99.90;;;;;;5074443;28;20500;-87
2021/12/17 14:46:03;;;;;;;0.40;0.40;;;6.10;99.90;;;;;;5074279;28;20434;-87
2021/12/17 14:48:39;;;;;;;0.40;0.40;;;6.00;99.90;;;;;;5074159;28;20425;-87
2021/12/17 15:02:28;;;;;;;0.77;0.47;;;6.10;99.90;;;;;;5073277;28;20518;-85
2021/12/17 15:04:56;;;;;;;0.30;0.30;;;6.10;99.90;;;;;;5074011;28;20436;-86
2021/12/17 15:07:23;;;;;;;0.50;0.50;;;6.10;99.90;;;;;;5073364;28;20961;-86
2021/12/17 15:09:50;;;;;;;2.43;2.13;;;6.20;99.90;;;;;;5073853;28;20528;-87
2021/12/17 15:15:01;;;;;;;0.30;0.30;;;6.30;99.90;;;;;;5073899;28;20463;-86
2021/12/17 15:17:28;;;;;;;0.30;0.30;;;6.30;99.90;;;;;;5074617;28;20437;-86
2021/12/17 15:19:56;;;;;;;0.50;0.50;;;6.30;99.90;;;;;;5074056;28;20897;-86
2021/12/17 15:22:24;;;;;;;0.60;0.53;;;6.30;99.90;;;;;;5073577;28;20484;-87
2021/12/17 15:24:52;;;;;;;0.30;0.30;;;6.30;99.90;;;;;;5073757;28;20440;-86
2021/12/17 15:27:19;;;;;;;0.50;0.40;;;6.30;99.90;;;;;;5073579;28;20433;-87
2021/12/17 15:29:45;;;;;;;0.60;0.60;;;6.40;99.90;;;;;;5073209;28;20441;-86
2021/12/17 15:32:12;;;;;;;0.40;0.40;;;6.40;99.90;;;;;;5073525;28;20543;-86
2021/12/17 15:34:39;;;;;;;0.70;0.70;;;6.30;99.90;;;;;;5073534;28;20484;-87
2021/12/17 15:37:07;;;;;;;0.80;0.80;;;6.30;99.90;;;;;;5073654;28;20456;-87
2021/12/17 15:39:34;;;;;;;0.93;0.40;;;6.30;99.90;;;;;;5088814;28;20424;-87
2021/12/17 15:42:00;;;;;;;0.90;0.50;;;6.20;99.90;;;;;;5092242;28;20487;-87